Aktualne dane pomiarowe

Uwaga, wersja testowa! Automatyczne pobieranie danych za pomocą narzędzi lub skryptów to umożliwiających jest zabronione.

Dane meteo z obszaru Polski uzyskane na podstawie depesz SYNOP pobieranych co godzinę z NWS. Najedź myszką na symbol przedstawiony w tabeli, aby uzyskać informacje co do jego znaczenia. Prosimy pamiętać, że to testowa wersja strony, która jeszcze nie jest ukończona. Stworzono również jest krótki FAQ dotyczący korzystania z tej podstrony Anomalie temperatury w chwili obecnej odniesione są do okresu referencyjnego 1951-2016. Okres ten będzie później zmieniony na 1981-2010. Kliknij ikonę aby pobrać plik CSV. Kliknij ikonę aby wygenerować mapę synoptyczną dla danego terminu.

Wybierz Datę:    

        

Mińsk Mazowiecki (12376)

Dane terminowe dla wybranej stacji. Kliknij datę, aby otrzymać dane z tego terminu dla wszystkich stacji.

TemperaturaZachmurzenieWiatrCiśnienieOpadyPogoda
 Data t td wb tx tn tg rh  Nt Nl Cl Cm Ch ws wd g1 g2 wx mslp ppp ch 24h 12h t ww ww w1 w2  
2019-07-20 23:00:00 16.0 13.5 14.3--- 8510.0wx-wx1wx---1017.2 995.4 0.4---------
2019-07-20 22:00:00 16.2 13.9 14.6--- 8610.0wx-wx1wx---1017.2 995.4 0.8---------
2019-07-20 21:00:00 17.1 14.4 15.2--- 8410.0wx-wx2wx---1016.9 995.2 0.9---------
2019-07-20 20:00:00 17.5 15.0 15.8--- 8510.0wx-wx3wx---1016.6 995.0 0.4---------
2019-07-20 19:00:00 19.8 15.9 17.1--- 7810.0wx-wx1wx---1016.1 994.6 0.1---------
2019-07-20 18:00:00 22.8 15.7 18.1--- 6410.0wx-wx1wx---1015.5 994.3 -0.4---------
2019-07-20 17:00:00 24.3 15.5 18.6--- 5810.0wxwxwxwx2wx---1015.6 994.5 -0.2---------
2019-07-20 16:00:00 24.6 15.0 18.4--- 5510.0wxwxwxwx2wx---1015.6 994.5 -0.3---------
2019-07-20 15:00:00 26.1 13.9 18.5--- 4710.0wxwxwxwx2wx---1015.7 994.7 -0.5---------
2019-07-20 14:00:00 24.6 15.5 18.7--- 5710.0wxwxwxwx5wx---1015.8 994.7 -0.4---------
2019-07-20 13:00:00 26.4 14.2 18.7--- 4710.0wxwxwxwx3wx---1015.7 994.7 0.0---------
2019-07-20 11:00:00 23.9 16.2 18.8--- 6210.0wxwxwxwx4wx---1016.3 995.1 0.2---------
2019-07-20 10:00:00 24.5 14.0 17.9--- 5210.0wxwxwx3wx---1015.8 994.7 -0.3---------
2019-07-20 09:00:00 23.5 14.2 17.6--- 5610.0wx-wx4wx---1016.3 995.1 0.4---------
2019-07-20 08:00:00 22.1 15.5 17.7--- 6610.0wx-wx3wx---1016.3 995.0 0.7---------
2019-07-20 07:00:00 18.7 15.8 16.7--- 8310.0wxwxwxwx3wx---1016.5 995.0 0.3---------
2019-07-20 06:00:00 16.9 15.3 15.8--- 9010.0wxwxwxwx2wx---1016.4 994.7 0.6---------
2019-07-20 05:00:00 16.4 15.1 15.5--- 9210.0wxwxwx4wx---1016.0 994.3 0.6---wx-w1w2--
2019-07-20 04:00:00 16.0 14.9 15.2--- 935.0wxwxwx2wx---1016.4 994.7 1.2---wx-----
2019-07-20 03:00:00 16.1 14.3 14.8--- 8910.0wxwxwx2wx---1015.8 994.1 0.6---------
2019-07-20 02:00:00 16.8 13.0 14.3--- 7810.0wx-wx1wx---1015.4 993.7 0.3---------
2019-07-20 01:00:00 17.3 12.6 14.2--- 7410.0wx-wx1wx---1015.1 993.5 0.2---------
2019-07-20 00:00:00 18.4 12.4 14.6--- 6810.0wx-wx2wx---1015.1 993.5 0.4---------
2019-07-19 23:00:00 18.8 11.7 14.4--- 6310.0wx-wxwx2wx---1014.9 993.4 0.6---------
2019-07-19 22:00:00 19.6 12.2 14.9--- 6210.0wx-wxwx2wx---1014.8 993.3 1.0---------
2019-07-19 21:00:00 19.5 12.0 14.8--- 6210.0wx-wxwx2wx---1014.6 993.1 1.2---------
2019-07-19 20:00:00 20.1 11.8 15.0--- 5910.0wx-wxwx2----1014.2 992.8 0.9---------
2019-07-19 19:00:00 20.0 13.2 15.6--- 6510.0wx-wxwx1wx---1013.7 992.3 0.4---------
2019-07-19 18:00:00 22.1 9.6 14.8--- 4510.0wxwxwxwx1wx---1013.2 991.9 0.0---------
2019-07-19 17:00:00 23.3 9.0 15.0--- 4010.0wx-wxwx1wx---1013.1 991.9 -0.3---------
2019-07-19 16:00:00 25.6 6.3 14.9--- 2910.0wx-wxwx2wx---1013.0 991.9 -0.4---------
2019-07-19 15:00:00 26.6 6.1 15.2--- 2710.0wxwxwx3wx---1012.9 991.9 -0.6---------
2019-07-19 14:00:00 26.8 6.8 15.6--- 2810.0wxwxwx3wx---1013.2 992.2 -0.5---------
2019-07-19 13:00:00 26.5 6.6 15.4--- 2810.0wxwxwx3wx---1013.3 992.3 -0.6---------
2019-07-19 12:00:00 26.3 6.9 15.4--- 2910.0wxwxwx2wx---1013.5 992.5 -0.4---------
2019-07-19 11:00:00 26.0 7.6 15.6--- 3110.0wxwxwx3wx---1013.7 992.7 -0.4---------
2019-07-19 10:00:00 25.5 7.6 15.4--- 3210.0wxwxwx3wx---1014.0 992.9 -0.3---------
2019-07-19 09:00:00 24.4 9.2 15.6--- 3810.0wxwxwx2wx---1014.0 992.9 -0.1---------
2019-07-19 08:00:00 23.0 9.1 14.9--- 4110.0wx-wx2wx---1014.3 993.1 0.1---------
2019-07-19 07:00:00 21.8 10.6 15.1--- 4910.0wx-wx2wx---1014.5 993.2 0.4---------
2019-07-19 06:00:00 19.8 11.3 14.6--- 5810.0wx-wx1wx---1014.5 993.0 0.1---------
2019-07-19 05:00:00 17.1 10.9 13.2--- 6710.0wx-wx1----1014.7 993.0 0.2---------
2019-07-19 04:00:00 12.1 10.2 10.8--- 8810.0wx-wx1----1014.8 992.8 -0.1---------
2019-07-19 03:00:00 8.3 6.9 7.3--- 9110.0wx-1----1015.2 992.9 0.1---------
2019-07-19 02:00:00 9.5 8.3 8.6--- 9210.0wx-1----1015.0 992.8 0.0---------
2019-07-19 01:00:00 9.0 7.6 8.0--- 9110.0wx-1----1015.2 992.9 0.3---------
2019-07-19 00:00:00 9.6 8.0 8.5--- 9010.0wx-1----1015.0 992.8 0.6---------
1.6 ms

 

Print Friendly, PDF & Email